Waldron Lake, Indiana
Current Conditions -  °F | °C
As of 10:53 AM on Friday 19 Dec 2014 (Local Time) from KGSH Reporting Station
Clear Clear  
Wind Chill: -4°   Ceiling: Unl
Heat Index: -1°   Visibility: 10mi
Dew Point: -6°   Wind: 6mph
Humidity: 67%   Direction: 350°N
Pressure: 30.29"   Gusts: NA
Location:  41.4818°N, 85.481°W
Report Text: KGSH 191553Z AUTO 35005KT 10SM CLR M01/M06 A3029 RMK AO2 SLP267 T10061061
Loading
Personal Weather Stations






























Interactive Weather Map New forecast layout! Learn more

10-Day Weather Forecast

Advertisements
Track Severe Weather on mobile